Grand Ronde, Oregon
Current Conditions -  °F | °C
As of 5:53 PM on Saturday 25 Oct 2014 (Local Time) from KMMV Reporting Station
Light Rain Light Rain  
Wind Chill: 55°   Ceiling: 7500
Heat Index: 55°   Visibility: 10mi
Dew Point: 51°   Wind: 21mph
Humidity: 86%   Direction: 230°SW
Pressure: 29.63"   Gusts: 35mph
Location:  45.06°N, 123.61°W
Report Text: KMMV 260053Z AUTO 23018G30KT 10SM -RA FEW048 BKN075 OVC100 13/11 A2963 RMK AO2 PK WND 23030/0002 PRESRR SLP034 P0000 T01280106
Loading
Personal Weather Stations






























Interactive Weather Map
Tropical Storm Tracking
New forecast layout! Learn more

10-Day Weather Forecast

Advertisements
Track Severe Weather on mobile